<?xml version="1.0" encoding="UTF-8" standalone="no" ?>
<gpx xmlns="http://www.topografix.com/GPX/1/1" xmlns:xsi="http://www.w3.org/2001/XMLSchema-instance" xsi:schemaLocation="http://www.topografix.com/GPX/1/1 http://www.topografix.com/GPX/1/1/gpx.xsd" version="1.1" creator="VisuGPX - https://www.visugpx.com">
  <metadata>
    <name>St Séb_Training course de nuit</name>
    <desc><![CDATA[Et en plus sous la pluie]]></desc>
  </metadata>
  <trk>
    <name><![CDATA[ACTIVE LOG: 29 NOV 2011 18:46]]></name>
    <trkseg>
      <trkpt lat="49.00242" lon="1.08947">
        <ele>112.13</ele>
        <time>2011-11-29T17:46:22Z</time>
      </trkpt>
      <trkpt lat="49.00242" lon="1.08947">
        <ele>112.61</ele>
        <time>2011-11-29T17:46:33Z</time>
      </trkpt>
      <trkpt lat="49.00216" lon="1.08955">
        <ele>114.05</ele>
        <time>2011-11-29T17:46:42Z</time>
      </trkpt>
      <trkpt lat="49.00207" lon="1.08968">
        <ele>114.05</ele>
        <time>2011-11-29T17:46:46Z</time>
      </trkpt>
      <trkpt lat="49.00219" lon="1.09029">
        <ele>112.13</ele>
        <time>2011-11-29T17:46:58Z</time>
      </trkpt>
      <trkpt lat="49.00242" lon="1.09077">
        <ele>111.17</ele>
        <time>2011-11-29T17:47:10Z</time>
      </trkpt>
      <trkpt lat="49.00249" lon="1.09092">
        <ele>111.65</ele>
        <time>2011-11-29T17:47:14Z</time>
      </trkpt>
      <trkpt lat="49.00233" lon="1.09134">
        <ele>112.61</ele>
        <time>2011-11-29T17:47:26Z</time>
      </trkpt>
      <trkpt lat="49.00197" lon="1.09149">
        <ele>113.09</ele>
        <time>2011-11-29T17:47:38Z</time>
      </trkpt>
      <trkpt lat="49.0016" lon="1.09172">
        <ele>113.57</ele>
        <time>2011-11-29T17:47:52Z</time>
      </trkpt>
      <trkpt lat="49.00138" lon="1.09215">
        <ele>114.53</ele>
        <time>2011-11-29T17:48:05Z</time>
      </trkpt>
      <trkpt lat="49.00138" lon="1.09261">
        <ele>113.09</ele>
        <time>2011-11-29T17:48:16Z</time>
      </trkpt>
      <trkpt lat="49.00151" lon="1.093">
        <ele>113.57</ele>
        <time>2011-11-29T17:48:27Z</time>
      </trkpt>
      <trkpt lat="49.00155" lon="1.09347">
        <ele>112.13</ele>
        <time>2011-11-29T17:48:40Z</time>
      </trkpt>
      <trkpt lat="49.00157" lon="1.09381">
        <ele>108.77</ele>
        <time>2011-11-29T17:48:49Z</time>
      </trkpt>
      <trkpt lat="49.00158" lon="1.09384">
        <ele>108.77</ele>
        <time>2011-11-29T17:48:50Z</time>
      </trkpt>
      <trkpt lat="49.00159" lon="1.09399">
        <ele>106.84</ele>
        <time>2011-11-29T17:48:54Z</time>
      </trkpt>
      <trkpt lat="49.0016" lon="1.09425">
        <ele>103</ele>
        <time>2011-11-29T17:49:02Z</time>
      </trkpt>
      <trkpt lat="49.0016" lon="1.09434">
        <ele>101.56</ele>
        <time>2011-11-29T17:49:05Z</time>
      </trkpt>
      <trkpt lat="49.00161" lon="1.09445">
        <ele>100.11</ele>
        <time>2011-11-29T17:49:08Z</time>
      </trkpt>
      <trkpt lat="49.00161" lon="1.09454">
        <ele>98.19</ele>
        <time>2011-11-29T17:49:11Z</time>
      </trkpt>
      <trkpt lat="49.00163" lon="1.09485">
        <ele>94.83</ele>
        <time>2011-11-29T17:49:20Z</time>
      </trkpt>
      <trkpt lat="49.00166" lon="1.09505">
        <ele>92.42</ele>
        <time>2011-11-29T17:49:25Z</time>
      </trkpt>
      <trkpt lat="49.00167" lon="1.09519">
        <ele>90.5</ele>
        <time>2011-11-29T17:49:29Z</time>
      </trkpt>
      <trkpt lat="49.00167" lon="1.09532">
        <ele>89.06</ele>
        <time>2011-11-29T17:49:33Z</time>
      </trkpt>
      <trkpt lat="49.00166" lon="1.09555">
        <ele>86.18</ele>
        <time>2011-11-29T17:49:40Z</time>
      </trkpt>
      <trkpt lat="49.00167" lon="1.09576">
        <ele>83.77</ele>
        <time>2011-11-29T17:49:46Z</time>
      </trkpt>
      <trkpt lat="49.00163" lon="1.09597">
        <ele>81.37</ele>
        <time>2011-11-29T17:49:52Z</time>
      </trkpt>
      <trkpt lat="49.00163" lon="1.096">
        <ele>80.41</ele>
        <time>2011-11-29T17:49:53Z</time>
      </trkpt>
      <trkpt lat="49.00162" lon="1.09608">
        <ele>78.97</ele>
        <time>2011-11-29T17:49:56Z</time>
      </trkpt>
      <trkpt lat="49.0016" lon="1.09617">
        <ele>77.04</ele>
        <time>2011-11-29T17:49:59Z</time>
      </trkpt>
      <trkpt lat="49.00161" lon="1.09631">
        <ele>76.08</ele>
        <time>2011-11-29T17:50:03Z</time>
      </trkpt>
      <trkpt lat="49.00162" lon="1.09642">
        <ele>74.16</ele>
        <time>2011-11-29T17:50:07Z</time>
      </trkpt>
      <trkpt lat="49.00162" lon="1.09653">
        <ele>72.24</ele>
        <time>2011-11-29T17:50:11Z</time>
      </trkpt>
      <trkpt lat="49.00164" lon="1.09664">
        <ele>70.79</ele>
        <time>2011-11-29T17:50:14Z</time>
      </trkpt>
      <trkpt lat="49.00168" lon="1.09677">
        <ele>68.39</ele>
        <time>2011-11-29T17:50:17Z</time>
      </trkpt>
      <trkpt lat="49.00174" lon="1.09715">
        <ele>65.51</ele>
        <time>2011-11-29T17:50:27Z</time>
      </trkpt>
      <trkpt lat="49.00186" lon="1.09749">
        <ele>64.55</ele>
        <time>2011-11-29T17:50:37Z</time>
      </trkpt>
      <trkpt lat="49.00215" lon="1.09794">
        <ele>64.07</ele>
        <time>2011-11-29T17:50:52Z</time>
      </trkpt>
      <trkpt lat="49.00237" lon="1.09837">
        <ele>64.07</ele>
        <time>2011-11-29T17:51:06Z</time>
      </trkpt>
      <trkpt lat="49.00248" lon="1.09883">
        <ele>63.58</ele>
        <time>2011-11-29T17:51:18Z</time>
      </trkpt>
      <trkpt lat="49.00222" lon="1.09918">
        <ele>64.07</ele>
        <time>2011-11-29T17:51:31Z</time>
      </trkpt>
      <trkpt lat="49.00195" lon="1.09944">
        <ele>63.58</ele>
        <time>2011-11-29T17:51:43Z</time>
      </trkpt>
      <trkpt lat="49.00164" lon="1.09977">
        <ele>62.62</ele>
        <time>2011-11-29T17:51:57Z</time>
      </trkpt>
      <trkpt lat="49.00131" lon="1.10008">
        <ele>62.14</ele>
        <time>2011-11-29T17:52:12Z</time>
      </trkpt>
      <trkpt lat="49.00099" lon="1.10037">
        <ele>62.62</ele>
        <time>2011-11-29T17:52:27Z</time>
      </trkpt>
      <trkpt lat="49.0006" lon="1.1006">
        <ele>62.62</ele>
        <time>2011-11-29T17:52:43Z</time>
      </trkpt>
      <trkpt lat="49.00022" lon="1.10072">
        <ele>62.14</ele>
        <time>2011-11-29T17:52:58Z</time>
      </trkpt>
      <trkpt lat="48.99988" lon="1.10093">
        <ele>63.1</ele>
        <time>2011-11-29T17:53:12Z</time>
      </trkpt>
      <trkpt lat="48.99958" lon="1.10114">
        <ele>62.62</ele>
        <time>2011-11-29T17:53:24Z</time>
      </trkpt>
      <trkpt lat="48.99955" lon="1.10115">
        <ele>62.62</ele>
        <time>2011-11-29T17:53:25Z</time>
      </trkpt>
      <trkpt lat="48.99936" lon="1.10085">
        <ele>61.66</ele>
        <time>2011-11-29T17:53:34Z</time>
      </trkpt>
      <trkpt lat="48.99921" lon="1.10038">
        <ele>61.18</ele>
        <time>2011-11-29T17:53:47Z</time>
      </trkpt>
      <trkpt lat="48.99907" lon="1.09993">
        <ele>61.18</ele>
        <time>2011-11-29T17:54:00Z</time>
      </trkpt>
      <trkpt lat="48.99887" lon="1.09946">
        <ele>60.7</ele>
        <time>2011-11-29T17:54:15Z</time>
      </trkpt>
      <trkpt lat="48.99865" lon="1.0991">
        <ele>61.66</ele>
        <time>2011-11-29T17:54:28Z</time>
      </trkpt>
      <trkpt lat="48.99852" lon="1.09864">
        <ele>61.66</ele>
        <time>2011-11-29T17:54:41Z</time>
      </trkpt>
      <trkpt lat="48.99841" lon="1.09827">
        <ele>62.14</ele>
        <time>2011-11-29T17:54:53Z</time>
      </trkpt>
      <trkpt lat="48.99826" lon="1.09776">
        <ele>61.18</ele>
        <time>2011-11-29T17:55:07Z</time>
      </trkpt>
      <trkpt lat="48.99822" lon="1.09718">
        <ele>61.66</ele>
        <time>2011-11-29T17:55:23Z</time>
      </trkpt>
      <trkpt lat="48.99816" lon="1.09664">
        <ele>61.66</ele>
        <time>2011-11-29T17:55:38Z</time>
      </trkpt>
      <trkpt lat="48.9981" lon="1.09604">
        <ele>61.66</ele>
        <time>2011-11-29T17:55:54Z</time>
      </trkpt>
      <trkpt lat="48.99802" lon="1.09555">
        <ele>61.18</ele>
        <time>2011-11-29T17:56:08Z</time>
      </trkpt>
      <trkpt lat="48.99789" lon="1.09506">
        <ele>61.18</ele>
        <time>2011-11-29T17:56:22Z</time>
      </trkpt>
      <trkpt lat="48.99771" lon="1.09454">
        <ele>62.14</ele>
        <time>2011-11-29T17:56:38Z</time>
      </trkpt>
      <trkpt lat="48.99756" lon="1.09403">
        <ele>62.14</ele>
        <time>2011-11-29T17:56:53Z</time>
      </trkpt>
      <trkpt lat="48.99751" lon="1.09384">
        <ele>62.62</ele>
        <time>2011-11-29T17:57:00Z</time>
      </trkpt>
      <trkpt lat="48.99734" lon="1.09335">
        <ele>62.14</ele>
        <time>2011-11-29T17:57:14Z</time>
      </trkpt>
      <trkpt lat="48.99722" lon="1.0929">
        <ele>62.14</ele>
        <time>2011-11-29T17:57:28Z</time>
      </trkpt>
      <trkpt lat="48.99721" lon="1.09287">
        <ele>62.14</ele>
        <time>2011-11-29T17:57:29Z</time>
      </trkpt>
      <trkpt lat="48.99713" lon="1.09243">
        <ele>62.62</ele>
        <time>2011-11-29T17:57:42Z</time>
      </trkpt>
      <trkpt lat="48.99695" lon="1.09196">
        <ele>63.1</ele>
        <time>2011-11-29T17:57:55Z</time>
      </trkpt>
      <trkpt lat="48.99686" lon="1.09151">
        <ele>63.1</ele>
        <time>2011-11-29T17:58:08Z</time>
      </trkpt>
      <trkpt lat="48.99674" lon="1.09116">
        <ele>63.1</ele>
        <time>2011-11-29T17:58:20Z</time>
      </trkpt>
      <trkpt lat="48.99661" lon="1.09074">
        <ele>63.1</ele>
        <time>2011-11-29T17:58:31Z</time>
      </trkpt>
      <trkpt lat="48.99658" lon="1.0903">
        <ele>63.58</ele>
        <time>2011-11-29T17:58:43Z</time>
      </trkpt>
      <trkpt lat="48.99641" lon="1.08983">
        <ele>63.58</ele>
        <time>2011-11-29T17:58:57Z</time>
      </trkpt>
      <trkpt lat="48.99628" lon="1.08938">
        <ele>63.58</ele>
        <time>2011-11-29T17:59:10Z</time>
      </trkpt>
      <trkpt lat="48.99612" lon="1.08884">
        <ele>63.58</ele>
        <time>2011-11-29T17:59:25Z</time>
      </trkpt>
      <trkpt lat="48.99596" lon="1.08832">
        <ele>64.55</ele>
        <time>2011-11-29T17:59:40Z</time>
      </trkpt>
      <trkpt lat="48.99583" lon="1.08786">
        <ele>64.55</ele>
        <time>2011-11-29T17:59:55Z</time>
      </trkpt>
      <trkpt lat="48.99569" lon="1.08739">
        <ele>64.07</ele>
        <time>2011-11-29T18:00:08Z</time>
      </trkpt>
      <trkpt lat="48.99553" lon="1.0869">
        <ele>64.55</ele>
        <time>2011-11-29T18:00:23Z</time>
      </trkpt>
      <trkpt lat="48.99539" lon="1.08635">
        <ele>64.55</ele>
        <time>2011-11-29T18:00:39Z</time>
      </trkpt>
      <trkpt lat="48.99532" lon="1.08584">
        <ele>64.07</ele>
        <time>2011-11-29T18:00:53Z</time>
      </trkpt>
      <trkpt lat="48.99524" lon="1.08526">
        <ele>64.55</ele>
        <time>2011-11-29T18:01:09Z</time>
      </trkpt>
      <trkpt lat="48.99517" lon="1.08483">
        <ele>65.51</ele>
        <time>2011-11-29T18:01:20Z</time>
      </trkpt>
      <trkpt lat="48.99512" lon="1.0843">
        <ele>65.51</ele>
        <time>2011-11-29T18:01:35Z</time>
      </trkpt>
      <trkpt lat="48.99503" lon="1.08389">
        <ele>65.03</ele>
        <time>2011-11-29T18:01:46Z</time>
      </trkpt>
      <trkpt lat="48.9949" lon="1.08339">
        <ele>65.03</ele>
        <time>2011-11-29T18:01:59Z</time>
      </trkpt>
      <trkpt lat="48.9948" lon="1.08284">
        <ele>65.51</ele>
        <time>2011-11-29T18:02:14Z</time>
      </trkpt>
      <trkpt lat="48.99477" lon="1.08274">
        <ele>65.51</ele>
        <time>2011-11-29T18:02:17Z</time>
      </trkpt>
      <trkpt lat="48.99471" lon="1.08261">
        <ele>65.51</ele>
        <time>2011-11-29T18:02:21Z</time>
      </trkpt>
      <trkpt lat="48.99459" lon="1.08201">
        <ele>65.51</ele>
        <time>2011-11-29T18:02:38Z</time>
      </trkpt>
      <trkpt lat="48.99453" lon="1.08156">
        <ele>65.51</ele>
        <time>2011-11-29T18:02:51Z</time>
      </trkpt>
      <trkpt lat="48.99443" lon="1.08089">
        <ele>65.99</ele>
        <time>2011-11-29T18:03:09Z</time>
      </trkpt>
      <trkpt lat="48.99438" lon="1.08045">
        <ele>65.51</ele>
        <time>2011-11-29T18:03:21Z</time>
      </trkpt>
      <trkpt lat="48.9944" lon="1.07974">
        <ele>66.47</ele>
        <time>2011-11-29T18:03:40Z</time>
      </trkpt>
      <trkpt lat="48.99441" lon="1.07915">
        <ele>65.99</ele>
        <time>2011-11-29T18:03:56Z</time>
      </trkpt>
      <trkpt lat="48.9944" lon="1.07845">
        <ele>65.99</ele>
        <time>2011-11-29T18:04:15Z</time>
      </trkpt>
      <trkpt lat="48.9944" lon="1.07789">
        <ele>66.95</ele>
        <time>2011-11-29T18:04:29Z</time>
      </trkpt>
      <trkpt lat="48.99445" lon="1.07737">
        <ele>66.95</ele>
        <time>2011-11-29T18:04:43Z</time>
      </trkpt>
      <trkpt lat="48.99464" lon="1.07711">
        <ele>67.43</ele>
        <time>2011-11-29T18:04:54Z</time>
      </trkpt>
      <trkpt lat="48.99498" lon="1.07688">
        <ele>66.95</ele>
        <time>2011-11-29T18:05:09Z</time>
      </trkpt>
      <trkpt lat="48.99522" lon="1.07668">
        <ele>67.43</ele>
        <time>2011-11-29T18:05:21Z</time>
      </trkpt>
      <trkpt lat="48.9955" lon="1.07651">
        <ele>66.95</ele>
        <time>2011-11-29T18:05:34Z</time>
      </trkpt>
      <trkpt lat="48.99573" lon="1.07626">
        <ele>66.47</ele>
        <time>2011-11-29T18:05:47Z</time>
      </trkpt>
      <trkpt lat="48.99577" lon="1.07591">
        <ele>66.95</ele>
        <time>2011-11-29T18:05:58Z</time>
      </trkpt>
      <trkpt lat="48.99582" lon="1.07552">
        <ele>66.95</ele>
        <time>2011-11-29T18:06:10Z</time>
      </trkpt>
      <trkpt lat="48.99606" lon="1.07534">
        <ele>66.95</ele>
        <time>2011-11-29T18:06:21Z</time>
      </trkpt>
      <trkpt lat="48.99633" lon="1.07519">
        <ele>67.43</ele>
        <time>2011-11-29T18:06:34Z</time>
      </trkpt>
      <trkpt lat="48.99662" lon="1.07499">
        <ele>68.39</ele>
        <time>2011-11-29T18:06:47Z</time>
      </trkpt>
      <trkpt lat="48.9969" lon="1.07471">
        <ele>69.35</ele>
        <time>2011-11-29T18:07:01Z</time>
      </trkpt>
      <trkpt lat="48.99717" lon="1.07446">
        <ele>67.91</ele>
        <time>2011-11-29T18:07:14Z</time>
      </trkpt>
      <trkpt lat="48.99749" lon="1.07425">
        <ele>67.91</ele>
        <time>2011-11-29T18:07:27Z</time>
      </trkpt>
      <trkpt lat="48.99773" lon="1.07405">
        <ele>68.87</ele>
        <time>2011-11-29T18:07:39Z</time>
      </trkpt>
      <trkpt lat="48.99796" lon="1.07387">
        <ele>69.83</ele>
        <time>2011-11-29T18:07:51Z</time>
      </trkpt>
      <trkpt lat="48.99815" lon="1.07374">
        <ele>70.31</ele>
        <time>2011-11-29T18:08:01Z</time>
      </trkpt>
      <trkpt lat="48.99819" lon="1.07378">
        <ele>70.79</ele>
        <time>2011-11-29T18:08:05Z</time>
      </trkpt>
      <trkpt lat="48.99838" lon="1.07374">
        <ele>71.76</ele>
        <time>2011-11-29T18:08:14Z</time>
      </trkpt>
      <trkpt lat="48.9984" lon="1.07375">
        <ele>71.76</ele>
        <time>2011-11-29T18:08:15Z</time>
      </trkpt>
      <trkpt lat="48.9987" lon="1.07401">
        <ele>74.16</ele>
        <time>2011-11-29T18:08:30Z</time>
      </trkpt>
      <trkpt lat="48.99892" lon="1.0742">
        <ele>75.6</ele>
        <time>2011-11-29T18:08:41Z</time>
      </trkpt>
      <trkpt lat="48.999" lon="1.07423">
        <ele>76.56</ele>
        <time>2011-11-29T18:08:46Z</time>
      </trkpt>
      <trkpt lat="48.99921" lon="1.0743">
        <ele>78.48</ele>
        <time>2011-11-29T18:08:57Z</time>
      </trkpt>
      <trkpt lat="48.99927" lon="1.07431">
        <ele>78.97</ele>
        <time>2011-11-29T18:09:01Z</time>
      </trkpt>
      <trkpt lat="48.99934" lon="1.07427">
        <ele>79.45</ele>
        <time>2011-11-29T18:09:05Z</time>
      </trkpt>
      <trkpt lat="48.99953" lon="1.07423">
        <ele>80.89</ele>
        <time>2011-11-29T18:09:16Z</time>
      </trkpt>
      <trkpt lat="48.9996" lon="1.0742">
        <ele>82.33</ele>
        <time>2011-11-29T18:09:22Z</time>
      </trkpt>
      <trkpt lat="48.9998" lon="1.07423">
        <ele>83.77</ele>
        <time>2011-11-29T18:09:33Z</time>
      </trkpt>
      <trkpt lat="49" lon="1.0743">
        <ele>85.21</ele>
        <time>2011-11-29T18:09:42Z</time>
      </trkpt>
      <trkpt lat="49.00018" lon="1.07435">
        <ele>86.18</ele>
        <time>2011-11-29T18:09:50Z</time>
      </trkpt>
      <trkpt lat="49.00024" lon="1.07433">
        <ele>86.66</ele>
        <time>2011-11-29T18:09:54Z</time>
      </trkpt>
      <trkpt lat="49.0002" lon="1.07411">
        <ele>87.62</ele>
        <time>2011-11-29T18:10:03Z</time>
      </trkpt>
      <trkpt lat="49.0002" lon="1.07403">
        <ele>88.1</ele>
        <time>2011-11-29T18:10:07Z</time>
      </trkpt>
      <trkpt lat="49.0002" lon="1.07396">
        <ele>89.06</ele>
        <time>2011-11-29T18:10:11Z</time>
      </trkpt>
      <trkpt lat="49.00015" lon="1.07382">
        <ele>90.98</ele>
        <time>2011-11-29T18:10:21Z</time>
      </trkpt>
      <trkpt lat="49.0001" lon="1.07375">
        <ele>91.46</ele>
        <time>2011-11-29T18:10:26Z</time>
      </trkpt>
      <trkpt lat="48.99997" lon="1.07358">
        <ele>93.39</ele>
        <time>2011-11-29T18:10:39Z</time>
      </trkpt>
      <trkpt lat="48.99994" lon="1.07353">
        <ele>94.35</ele>
        <time>2011-11-29T18:10:42Z</time>
      </trkpt>
      <trkpt lat="48.99991" lon="1.07344">
        <ele>94.83</ele>
        <time>2011-11-29T18:10:47Z</time>
      </trkpt>
      <trkpt lat="48.99989" lon="1.07338">
        <ele>95.31</ele>
        <time>2011-11-29T18:10:50Z</time>
      </trkpt>
      <trkpt lat="48.99985" lon="1.07315">
        <ele>96.75</ele>
        <time>2011-11-29T18:10:58Z</time>
      </trkpt>
      <trkpt lat="48.99989" lon="1.07288">
        <ele>98.67</ele>
        <time>2011-11-29T18:11:07Z</time>
      </trkpt>
      <trkpt lat="48.99997" lon="1.07267">
        <ele>100.6</ele>
        <time>2011-11-29T18:11:16Z</time>
      </trkpt>
      <trkpt lat="48.99999" lon="1.07263">
        <ele>100.6</ele>
        <time>2011-11-29T18:11:18Z</time>
      </trkpt>
      <trkpt lat="49.00006" lon="1.07247">
        <ele>103</ele>
        <time>2011-11-29T18:11:28Z</time>
      </trkpt>
      <trkpt lat="49.00012" lon="1.07235">
        <ele>103.96</ele>
        <time>2011-11-29T18:11:34Z</time>
      </trkpt>
      <trkpt lat="49.00015" lon="1.0723">
        <ele>104.44</ele>
        <time>2011-11-29T18:11:36Z</time>
      </trkpt>
      <trkpt lat="49.00018" lon="1.07226">
        <ele>104.92</ele>
        <time>2011-11-29T18:11:38Z</time>
      </trkpt>
      <trkpt lat="49.0002" lon="1.07218">
        <ele>106.36</ele>
        <time>2011-11-29T18:11:42Z</time>
      </trkpt>
      <trkpt lat="49.00028" lon="1.07206">
        <ele>107.32</ele>
        <time>2011-11-29T18:11:51Z</time>
      </trkpt>
      <trkpt lat="49.0004" lon="1.07196">
        <ele>109.73</ele>
        <time>2011-11-29T18:12:00Z</time>
      </trkpt>
      <trkpt lat="49.00048" lon="1.07185">
        <ele>110.21</ele>
        <time>2011-11-29T18:12:07Z</time>
      </trkpt>
      <trkpt lat="49.00052" lon="1.07179">
        <ele>110.69</ele>
        <time>2011-11-29T18:12:11Z</time>
      </trkpt>
      <trkpt lat="49.00053" lon="1.07176">
        <ele>111.65</ele>
        <time>2011-11-29T18:12:13Z</time>
      </trkpt>
      <trkpt lat="49.00056" lon="1.07164">
        <ele>113.09</ele>
        <time>2011-11-29T18:12:21Z</time>
      </trkpt>
      <trkpt lat="49.00058" lon="1.07134">
        <ele>115.5</ele>
        <time>2011-11-29T18:12:32Z</time>
      </trkpt>
      <trkpt lat="49.00063" lon="1.07116">
        <ele>116.94</ele>
        <time>2011-11-29T18:12:40Z</time>
      </trkpt>
      <trkpt lat="49.00068" lon="1.07076">
        <ele>118.38</ele>
        <time>2011-11-29T18:12:55Z</time>
      </trkpt>
      <trkpt lat="49.00071" lon="1.07062">
        <ele>118.86</ele>
        <time>2011-11-29T18:13:00Z</time>
      </trkpt>
      <trkpt lat="49.00074" lon="1.07049">
        <ele>119.34</ele>
        <time>2011-11-29T18:13:06Z</time>
      </trkpt>
      <trkpt lat="49.0008" lon="1.07041">
        <ele>119.82</ele>
        <time>2011-11-29T18:13:10Z</time>
      </trkpt>
      <trkpt lat="49.00097" lon="1.07015">
        <ele>121.26</ele>
        <time>2011-11-29T18:13:22Z</time>
      </trkpt>
      <trkpt lat="49.00101" lon="1.07012">
        <ele>121.74</ele>
        <time>2011-11-29T18:13:24Z</time>
      </trkpt>
      <trkpt lat="49.00122" lon="1.06999">
        <ele>122.71</ele>
        <time>2011-11-29T18:13:37Z</time>
      </trkpt>
      <trkpt lat="49.00138" lon="1.0699">
        <ele>123.19</ele>
        <time>2011-11-29T18:13:47Z</time>
      </trkpt>
      <trkpt lat="49.00159" lon="1.06979">
        <ele>124.15</ele>
        <time>2011-11-29T18:13:59Z</time>
      </trkpt>
      <trkpt lat="49.00189" lon="1.06962">
        <ele>124.63</ele>
        <time>2011-11-29T18:14:13Z</time>
      </trkpt>
      <trkpt lat="49.00208" lon="1.06955">
        <ele>125.11</ele>
        <time>2011-11-29T18:14:21Z</time>
      </trkpt>
      <trkpt lat="49.00233" lon="1.06946">
        <ele>126.07</ele>
        <time>2011-11-29T18:14:33Z</time>
      </trkpt>
      <trkpt lat="49.00245" lon="1.0694">
        <ele>126.07</ele>
        <time>2011-11-29T18:14:39Z</time>
      </trkpt>
      <trkpt lat="49.00269" lon="1.06927">
        <ele>126.55</ele>
        <time>2011-11-29T18:14:51Z</time>
      </trkpt>
      <trkpt lat="49.00296" lon="1.06901">
        <ele>126.07</ele>
        <time>2011-11-29T18:15:03Z</time>
      </trkpt>
      <trkpt lat="49.00318" lon="1.06864">
        <ele>126.55</ele>
        <time>2011-11-29T18:15:18Z</time>
      </trkpt>
      <trkpt lat="49.00335" lon="1.06831">
        <ele>126.55</ele>
        <time>2011-11-29T18:15:30Z</time>
      </trkpt>
      <trkpt lat="49.00359" lon="1.06798">
        <ele>127.03</ele>
        <time>2011-11-29T18:15:43Z</time>
      </trkpt>
      <trkpt lat="49.00388" lon="1.06773">
        <ele>127.03</ele>
        <time>2011-11-29T18:15:56Z</time>
      </trkpt>
      <trkpt lat="49.00415" lon="1.06751">
        <ele>126.07</ele>
        <time>2011-11-29T18:16:08Z</time>
      </trkpt>
      <trkpt lat="49.00444" lon="1.06728">
        <ele>125.11</ele>
        <time>2011-11-29T18:16:21Z</time>
      </trkpt>
      <trkpt lat="49.00472" lon="1.06709">
        <ele>123.67</ele>
        <time>2011-11-29T18:16:33Z</time>
      </trkpt>
      <trkpt lat="49.00514" lon="1.06692">
        <ele>122.22</ele>
        <time>2011-11-29T18:16:45Z</time>
      </trkpt>
      <trkpt lat="49.00547" lon="1.06679">
        <ele>121.26</ele>
        <time>2011-11-29T18:16:59Z</time>
      </trkpt>
      <trkpt lat="49.00586" lon="1.06673">
        <ele>121.26</ele>
        <time>2011-11-29T18:17:13Z</time>
      </trkpt>
      <trkpt lat="49.00618" lon="1.06661">
        <ele>121.26</ele>
        <time>2011-11-29T18:17:26Z</time>
      </trkpt>
      <trkpt lat="49.00644" lon="1.06653">
        <ele>122.22</ele>
        <time>2011-11-29T18:17:38Z</time>
      </trkpt>
      <trkpt lat="49.00671" lon="1.06638">
        <ele>122.71</ele>
        <time>2011-11-29T18:17:51Z</time>
      </trkpt>
      <trkpt lat="49.00681" lon="1.06634">
        <ele>122.71</ele>
        <time>2011-11-29T18:17:55Z</time>
      </trkpt>
      <trkpt lat="49.00691" lon="1.06621">
        <ele>123.19</ele>
        <time>2011-11-29T18:18:00Z</time>
      </trkpt>
      <trkpt lat="49.00718" lon="1.06584">
        <ele>124.63</ele>
        <time>2011-11-29T18:18:16Z</time>
      </trkpt>
      <trkpt lat="49.00737" lon="1.06558">
        <ele>124.63</ele>
        <time>2011-11-29T18:18:28Z</time>
      </trkpt>
      <trkpt lat="49.00765" lon="1.06525">
        <ele>124.63</ele>
        <time>2011-11-29T18:18:43Z</time>
      </trkpt>
      <trkpt lat="49.00789" lon="1.06492">
        <ele>124.15</ele>
        <time>2011-11-29T18:18:56Z</time>
      </trkpt>
      <trkpt lat="49.0082" lon="1.06468">
        <ele>124.15</ele>
        <time>2011-11-29T18:19:10Z</time>
      </trkpt>
      <trkpt lat="49.00851" lon="1.0645">
        <ele>123.67</ele>
        <time>2011-11-29T18:19:23Z</time>
      </trkpt>
      <trkpt lat="49.00884" lon="1.06431">
        <ele>122.22</ele>
        <time>2011-11-29T18:19:36Z</time>
      </trkpt>
      <trkpt lat="49.00919" lon="1.06408">
        <ele>120.78</ele>
        <time>2011-11-29T18:19:50Z</time>
      </trkpt>
      <trkpt lat="49.00959" lon="1.06382">
        <ele>118.38</ele>
        <time>2011-11-29T18:20:04Z</time>
      </trkpt>
      <trkpt lat="49.00991" lon="1.06344">
        <ele>115.98</ele>
        <time>2011-11-29T18:20:17Z</time>
      </trkpt>
      <trkpt lat="49.01016" lon="1.06297">
        <ele>114.05</ele>
        <time>2011-11-29T18:20:30Z</time>
      </trkpt>
      <trkpt lat="49.01037" lon="1.06248">
        <ele>113.09</ele>
        <time>2011-11-29T18:20:42Z</time>
      </trkpt>
      <trkpt lat="49.01064" lon="1.06208">
        <ele>113.09</ele>
        <time>2011-11-29T18:20:56Z</time>
      </trkpt>
      <trkpt lat="49.01098" lon="1.06182">
        <ele>114.05</ele>
        <time>2011-11-29T18:21:12Z</time>
      </trkpt>
      <trkpt lat="49.01128" lon="1.06159">
        <ele>114.53</ele>
        <time>2011-11-29T18:21:26Z</time>
      </trkpt>
      <trkpt lat="49.0116" lon="1.0614">
        <ele>115.01</ele>
        <time>2011-11-29T18:21:41Z</time>
      </trkpt>
      <trkpt lat="49.01194" lon="1.06117">
        <ele>115.5</ele>
        <time>2011-11-29T18:21:56Z</time>
      </trkpt>
      <trkpt lat="49.01218" lon="1.06103">
        <ele>115.5</ele>
        <time>2011-11-29T18:22:07Z</time>
      </trkpt>
      <trkpt lat="49.01252" lon="1.06094">
        <ele>115.5</ele>
        <time>2011-11-29T18:22:21Z</time>
      </trkpt>
      <trkpt lat="49.01287" lon="1.06091">
        <ele>115.5</ele>
        <time>2011-11-29T18:22:36Z</time>
      </trkpt>
      <trkpt lat="49.0132" lon="1.06083">
        <ele>115.5</ele>
        <time>2011-11-29T18:22:49Z</time>
      </trkpt>
      <trkpt lat="49.01356" lon="1.06064">
        <ele>114.05</ele>
        <time>2011-11-29T18:23:03Z</time>
      </trkpt>
      <trkpt lat="49.01377" lon="1.06039">
        <ele>112.61</ele>
        <time>2011-11-29T18:23:13Z</time>
      </trkpt>
      <trkpt lat="49.01391" lon="1.05979">
        <ele>110.21</ele>
        <time>2011-11-29T18:23:28Z</time>
      </trkpt>
      <trkpt lat="49.01392" lon="1.05915">
        <ele>108.29</ele>
        <time>2011-11-29T18:23:43Z</time>
      </trkpt>
      <trkpt lat="49.01414" lon="1.05897">
        <ele>106.36</ele>
        <time>2011-11-29T18:23:53Z</time>
      </trkpt>
      <trkpt lat="49.01446" lon="1.05944">
        <ele>103</ele>
        <time>2011-11-29T18:24:05Z</time>
      </trkpt>
      <trkpt lat="49.01466" lon="1.06004">
        <ele>100.11</ele>
        <time>2011-11-29T18:24:19Z</time>
      </trkpt>
      <trkpt lat="49.01481" lon="1.06055">
        <ele>96.75</ele>
        <time>2011-11-29T18:24:31Z</time>
      </trkpt>
      <trkpt lat="49.01497" lon="1.06108">
        <ele>93.87</ele>
        <time>2011-11-29T18:24:44Z</time>
      </trkpt>
      <trkpt lat="49.01527" lon="1.0617">
        <ele>91.94</ele>
        <time>2011-11-29T18:25:01Z</time>
      </trkpt>
      <trkpt lat="49.01553" lon="1.06207">
        <ele>92.9</ele>
        <time>2011-11-29T18:25:16Z</time>
      </trkpt>
      <trkpt lat="49.01574" lon="1.06224">
        <ele>95.79</ele>
        <time>2011-11-29T18:25:30Z</time>
      </trkpt>
      <trkpt lat="49.01593" lon="1.06235">
        <ele>98.19</ele>
        <time>2011-11-29T18:25:41Z</time>
      </trkpt>
      <trkpt lat="49.01613" lon="1.06235">
        <ele>101.56</ele>
        <time>2011-11-29T18:25:54Z</time>
      </trkpt>
      <trkpt lat="49.01627" lon="1.06209">
        <ele>104.44</ele>
        <time>2011-11-29T18:26:08Z</time>
      </trkpt>
      <trkpt lat="49.01644" lon="1.06176">
        <ele>106.84</ele>
        <time>2011-11-29T18:26:24Z</time>
      </trkpt>
      <trkpt lat="49.01667" lon="1.06153">
        <ele>110.21</ele>
        <time>2011-11-29T18:26:41Z</time>
      </trkpt>
      <trkpt lat="49.01694" lon="1.06137">
        <ele>112.61</ele>
        <time>2011-11-29T18:26:57Z</time>
      </trkpt>
      <trkpt lat="49.0173" lon="1.06131">
        <ele>113.09</ele>
        <time>2011-11-29T18:27:14Z</time>
      </trkpt>
      <trkpt lat="49.01763" lon="1.06127">
        <ele>113.09</ele>
        <time>2011-11-29T18:27:28Z</time>
      </trkpt>
      <trkpt lat="49.01801" lon="1.06125">
        <ele>112.13</ele>
        <time>2011-11-29T18:27:44Z</time>
      </trkpt>
      <trkpt lat="49.01817" lon="1.06151">
        <ele>113.09</ele>
        <time>2011-11-29T18:27:54Z</time>
      </trkpt>
      <trkpt lat="49.01825" lon="1.06195">
        <ele>112.13</ele>
        <time>2011-11-29T18:28:07Z</time>
      </trkpt>
      <trkpt lat="49.01837" lon="1.06248">
        <ele>112.61</ele>
        <time>2011-11-29T18:28:22Z</time>
      </trkpt>
      <trkpt lat="49.01843" lon="1.06302">
        <ele>111.65</ele>
        <time>2011-11-29T18:28:37Z</time>
      </trkpt>
      <trkpt lat="49.01845" lon="1.06351">
        <ele>111.65</ele>
        <time>2011-11-29T18:28:51Z</time>
      </trkpt>
      <trkpt lat="49.01854" lon="1.06403">
        <ele>111.65</ele>
        <time>2011-11-29T18:29:05Z</time>
      </trkpt>
      <trkpt lat="49.0186" lon="1.06452">
        <ele>111.17</ele>
        <time>2011-11-29T18:29:18Z</time>
      </trkpt>
      <trkpt lat="49.01862" lon="1.06505">
        <ele>110.69</ele>
        <time>2011-11-29T18:29:31Z</time>
      </trkpt>
      <trkpt lat="49.01863" lon="1.06559">
        <ele>110.69</ele>
        <time>2011-11-29T18:29:45Z</time>
      </trkpt>
      <trkpt lat="49.01864" lon="1.06614">
        <ele>110.69</ele>
        <time>2011-11-29T18:29:59Z</time>
      </trkpt>
      <trkpt lat="49.01864" lon="1.06679">
        <ele>109.25</ele>
        <time>2011-11-29T18:30:15Z</time>
      </trkpt>
      <trkpt lat="49.01866" lon="1.06738">
        <ele>108.29</ele>
        <time>2011-11-29T18:30:30Z</time>
      </trkpt>
      <trkpt lat="49.01869" lon="1.06792">
        <ele>106.84</ele>
        <time>2011-11-29T18:30:43Z</time>
      </trkpt>
      <trkpt lat="49.01871" lon="1.06849">
        <ele>104.92</ele>
        <time>2011-11-29T18:30:56Z</time>
      </trkpt>
      <trkpt lat="49.0187" lon="1.06909">
        <ele>103.48</ele>
        <time>2011-11-29T18:31:10Z</time>
      </trkpt>
      <trkpt lat="49.0187" lon="1.06962">
        <ele>102.04</ele>
        <time>2011-11-29T18:31:22Z</time>
      </trkpt>
      <trkpt lat="49.01867" lon="1.07017">
        <ele>99.63</ele>
        <time>2011-11-29T18:31:35Z</time>
      </trkpt>
      <trkpt lat="49.01863" lon="1.07078">
        <ele>98.67</ele>
        <time>2011-11-29T18:31:49Z</time>
      </trkpt>
      <trkpt lat="49.0186" lon="1.07141">
        <ele>95.79</ele>
        <time>2011-11-29T18:32:03Z</time>
      </trkpt>
      <trkpt lat="49.01862" lon="1.07199">
        <ele>92.9</ele>
        <time>2011-11-29T18:32:15Z</time>
      </trkpt>
      <trkpt lat="49.01864" lon="1.07247">
        <ele>90.02</ele>
        <time>2011-11-29T18:32:25Z</time>
      </trkpt>
      <trkpt lat="49.01864" lon="1.07279">
        <ele>87.62</ele>
        <time>2011-11-29T18:32:32Z</time>
      </trkpt>
      <trkpt lat="49.01866" lon="1.07341">
        <ele>85.69</ele>
        <time>2011-11-29T18:32:45Z</time>
      </trkpt>
      <trkpt lat="49.01866" lon="1.07396">
        <ele>84.25</ele>
        <time>2011-11-29T18:32:59Z</time>
      </trkpt>
      <trkpt lat="49.01882" lon="1.07447">
        <ele>84.73</ele>
        <time>2011-11-29T18:33:14Z</time>
      </trkpt>
      <trkpt lat="49.01907" lon="1.07494">
        <ele>82.81</ele>
        <time>2011-11-29T18:33:29Z</time>
      </trkpt>
      <trkpt lat="49.01935" lon="1.07546">
        <ele>80.89</ele>
        <time>2011-11-29T18:33:44Z</time>
      </trkpt>
      <trkpt lat="49.01955" lon="1.0759">
        <ele>81.37</ele>
        <time>2011-11-29T18:33:58Z</time>
      </trkpt>
      <trkpt lat="49.01976" lon="1.07637">
        <ele>81.37</ele>
        <time>2011-11-29T18:34:14Z</time>
      </trkpt>
      <trkpt lat="49.02002" lon="1.07671">
        <ele>80.41</ele>
        <time>2011-11-29T18:34:26Z</time>
      </trkpt>
      <trkpt lat="49.02025" lon="1.07714">
        <ele>80.41</ele>
        <time>2011-11-29T18:34:40Z</time>
      </trkpt>
      <trkpt lat="49.02041" lon="1.07754">
        <ele>80.89</ele>
        <time>2011-11-29T18:34:54Z</time>
      </trkpt>
      <trkpt lat="49.02041" lon="1.0779">
        <ele>82.33</ele>
        <time>2011-11-29T18:35:05Z</time>
      </trkpt>
      <trkpt lat="49.02009" lon="1.07821">
        <ele>84.73</ele>
        <time>2011-11-29T18:35:22Z</time>
      </trkpt>
      <trkpt lat="49.01989" lon="1.07829">
        <ele>86.66</ele>
        <time>2011-11-29T18:35:36Z</time>
      </trkpt>
      <trkpt lat="49.01974" lon="1.07832">
        <ele>87.14</ele>
        <time>2011-11-29T18:35:45Z</time>
      </trkpt>
      <trkpt lat="49.01956" lon="1.07829">
        <ele>89.06</ele>
        <time>2011-11-29T18:35:58Z</time>
      </trkpt>
      <trkpt lat="49.01955" lon="1.07827">
        <ele>89.54</ele>
        <time>2011-11-29T18:35:59Z</time>
      </trkpt>
      <trkpt lat="49.0195" lon="1.07824">
        <ele>89.54</ele>
        <time>2011-11-29T18:36:04Z</time>
      </trkpt>
      <trkpt lat="49.01931" lon="1.07825">
        <ele>91.46</ele>
        <time>2011-11-29T18:36:17Z</time>
      </trkpt>
      <trkpt lat="49.01912" lon="1.07829">
        <ele>93.87</ele>
        <time>2011-11-29T18:36:27Z</time>
      </trkpt>
      <trkpt lat="49.01905" lon="1.07828">
        <ele>94.35</ele>
        <time>2011-11-29T18:36:31Z</time>
      </trkpt>
      <trkpt lat="49.01899" lon="1.07828">
        <ele>94.83</ele>
        <time>2011-11-29T18:36:35Z</time>
      </trkpt>
      <trkpt lat="49.01893" lon="1.07831">
        <ele>95.79</ele>
        <time>2011-11-29T18:36:39Z</time>
      </trkpt>
      <trkpt lat="49.01876" lon="1.0784">
        <ele>98.19</ele>
        <time>2011-11-29T18:36:50Z</time>
      </trkpt>
      <trkpt lat="49.01874" lon="1.0784">
        <ele>98.19</ele>
        <time>2011-11-29T18:36:52Z</time>
      </trkpt>
      <trkpt lat="49.01862" lon="1.07845">
        <ele>100.11</ele>
        <time>2011-11-29T18:37:00Z</time>
      </trkpt>
      <trkpt lat="49.01853" lon="1.07852">
        <ele>100.6</ele>
        <time>2011-11-29T18:37:06Z</time>
      </trkpt>
      <trkpt lat="49.01835" lon="1.07857">
        <ele>103</ele>
        <time>2011-11-29T18:37:20Z</time>
      </trkpt>
      <trkpt lat="49.0183" lon="1.07857">
        <ele>103.96</ele>
        <time>2011-11-29T18:37:23Z</time>
      </trkpt>
      <trkpt lat="49.01804" lon="1.07862">
        <ele>105.88</ele>
        <time>2011-11-29T18:37:40Z</time>
      </trkpt>
      <trkpt lat="49.01788" lon="1.07867">
        <ele>107.81</ele>
        <time>2011-11-29T18:37:51Z</time>
      </trkpt>
      <trkpt lat="49.01789" lon="1.07879">
        <ele>108.77</ele>
        <time>2011-11-29T18:37:56Z</time>
      </trkpt>
      <trkpt lat="49.01792" lon="1.0789">
        <ele>109.25</ele>
        <time>2011-11-29T18:38:00Z</time>
      </trkpt>
      <trkpt lat="49.01798" lon="1.07908">
        <ele>109.73</ele>
        <time>2011-11-29T18:38:08Z</time>
      </trkpt>
      <trkpt lat="49.01804" lon="1.07949">
        <ele>110.69</ele>
        <time>2011-11-29T18:38:23Z</time>
      </trkpt>
      <trkpt lat="49.01808" lon="1.07962">
        <ele>110.69</ele>
        <time>2011-11-29T18:38:28Z</time>
      </trkpt>
      <trkpt lat="49.01817" lon="1.07975">
        <ele>111.17</ele>
        <time>2011-11-29T18:38:33Z</time>
      </trkpt>
      <trkpt lat="49.01829" lon="1.08006">
        <ele>111.17</ele>
        <time>2011-11-29T18:38:45Z</time>
      </trkpt>
      <trkpt lat="49.01841" lon="1.08049">
        <ele>111.65</ele>
        <time>2011-11-29T18:38:59Z</time>
      </trkpt>
      <trkpt lat="49.01842" lon="1.08051">
        <ele>111.65</ele>
        <time>2011-11-29T18:39:00Z</time>
      </trkpt>
      <trkpt lat="49.01845" lon="1.08072">
        <ele>112.61</ele>
        <time>2011-11-29T18:39:08Z</time>
      </trkpt>
      <trkpt lat="49.01846" lon="1.08081">
        <ele>113.09</ele>
        <time>2011-11-29T18:39:12Z</time>
      </trkpt>
      <trkpt lat="49.01849" lon="1.08102">
        <ele>114.05</ele>
        <time>2011-11-29T18:39:19Z</time>
      </trkpt>
      <trkpt lat="49.01856" lon="1.08125">
        <ele>114.53</ele>
        <time>2011-11-29T18:39:27Z</time>
      </trkpt>
      <trkpt lat="49.01858" lon="1.08134">
        <ele>115.01</ele>
        <time>2011-11-29T18:39:30Z</time>
      </trkpt>
      <trkpt lat="49.01864" lon="1.08159">
        <ele>115.5</ele>
        <time>2011-11-29T18:39:38Z</time>
      </trkpt>
      <trkpt lat="49.01875" lon="1.08199">
        <ele>116.46</ele>
        <time>2011-11-29T18:39:52Z</time>
      </trkpt>
      <trkpt lat="49.01878" lon="1.08214">
        <ele>116.46</ele>
        <time>2011-11-29T18:39:57Z</time>
      </trkpt>
      <trkpt lat="49.01885" lon="1.08258">
        <ele>116.94</ele>
        <time>2011-11-29T18:40:10Z</time>
      </trkpt>
      <trkpt lat="49.01886" lon="1.08271">
        <ele>116.94</ele>
        <time>2011-11-29T18:40:14Z</time>
      </trkpt>
      <trkpt lat="49.01887" lon="1.08292">
        <ele>117.9</ele>
        <time>2011-11-29T18:40:22Z</time>
      </trkpt>
      <trkpt lat="49.0189" lon="1.08303">
        <ele>117.9</ele>
        <time>2011-11-29T18:40:25Z</time>
      </trkpt>
      <trkpt lat="49.01906" lon="1.08353">
        <ele>118.38</ele>
        <time>2011-11-29T18:40:41Z</time>
      </trkpt>
      <trkpt lat="49.01915" lon="1.08383">
        <ele>118.38</ele>
        <time>2011-11-29T18:40:51Z</time>
      </trkpt>
      <trkpt lat="49.01919" lon="1.08403">
        <ele>117.9</ele>
        <time>2011-11-29T18:40:57Z</time>
      </trkpt>
      <trkpt lat="49.01924" lon="1.08424">
        <ele>117.42</ele>
        <time>2011-11-29T18:41:05Z</time>
      </trkpt>
      <trkpt lat="49.0193" lon="1.08462">
        <ele>117.42</ele>
        <time>2011-11-29T18:41:17Z</time>
      </trkpt>
      <trkpt lat="49.01941" lon="1.08498">
        <ele>116.94</ele>
        <time>2011-11-29T18:41:30Z</time>
      </trkpt>
      <trkpt lat="49.01952" lon="1.08539">
        <ele>116.94</ele>
        <time>2011-11-29T18:41:41Z</time>
      </trkpt>
      <trkpt lat="49.01953" lon="1.08546">
        <ele>116.94</ele>
        <time>2011-11-29T18:41:43Z</time>
      </trkpt>
      <trkpt lat="49.01964" lon="1.08592">
        <ele>117.42</ele>
        <time>2011-11-29T18:41:58Z</time>
      </trkpt>
      <trkpt lat="49.01974" lon="1.08637">
        <ele>117.42</ele>
        <time>2011-11-29T18:42:11Z</time>
      </trkpt>
      <trkpt lat="49.01984" lon="1.08678">
        <ele>116.46</ele>
        <time>2011-11-29T18:42:23Z</time>
      </trkpt>
      <trkpt lat="49.01995" lon="1.08721">
        <ele>116.46</ele>
        <time>2011-11-29T18:42:36Z</time>
      </trkpt>
      <trkpt lat="49.0201" lon="1.08761">
        <ele>116.46</ele>
        <time>2011-11-29T18:42:48Z</time>
      </trkpt>
      <trkpt lat="49.02017" lon="1.08798">
        <ele>116.46</ele>
        <time>2011-11-29T18:43:00Z</time>
      </trkpt>
      <trkpt lat="49.02028" lon="1.08846">
        <ele>115.98</ele>
        <time>2011-11-29T18:43:13Z</time>
      </trkpt>
      <trkpt lat="49.02035" lon="1.08883">
        <ele>115.5</ele>
        <time>2011-11-29T18:43:23Z</time>
      </trkpt>
      <trkpt lat="49.02045" lon="1.08929">
        <ele>115.01</ele>
        <time>2011-11-29T18:43:36Z</time>
      </trkpt>
      <trkpt lat="49.02057" lon="1.08966">
        <ele>114.53</ele>
        <time>2011-11-29T18:43:48Z</time>
      </trkpt>
      <trkpt lat="49.02059" lon="1.08975">
        <ele>114.53</ele>
        <time>2011-11-29T18:43:51Z</time>
      </trkpt>
      <trkpt lat="49.0207" lon="1.09019">
        <ele>114.05</ele>
        <time>2011-11-29T18:44:04Z</time>
      </trkpt>
      <trkpt lat="49.02076" lon="1.09058">
        <ele>113.57</ele>
        <time>2011-11-29T18:44:15Z</time>
      </trkpt>
      <trkpt lat="49.02086" lon="1.09092">
        <ele>113.09</ele>
        <time>2011-11-29T18:44:25Z</time>
      </trkpt>
      <trkpt lat="49.021" lon="1.09142">
        <ele>111.65</ele>
        <time>2011-11-29T18:44:38Z</time>
      </trkpt>
      <trkpt lat="49.021" lon="1.09146">
        <ele>111.65</ele>
        <time>2011-11-29T18:44:39Z</time>
      </trkpt>
      <trkpt lat="49.02103" lon="1.09162">
        <ele>111.17</ele>
        <time>2011-11-29T18:44:46Z</time>
      </trkpt>
      <trkpt lat="49.02105" lon="1.09172">
        <ele>111.17</ele>
        <time>2011-11-29T18:44:49Z</time>
      </trkpt>
      <trkpt lat="49.02106" lon="1.09184">
        <ele>110.21</ele>
        <time>2011-11-29T18:44:54Z</time>
      </trkpt>
      <trkpt lat="49.02121" lon="1.09234">
        <ele>109.73</ele>
        <time>2011-11-29T18:45:05Z</time>
      </trkpt>
      <trkpt lat="49.02123" lon="1.09246">
        <ele>109.25</ele>
        <time>2011-11-29T18:45:08Z</time>
      </trkpt>
      <trkpt lat="49.02121" lon="1.09258">
        <ele>109.73</ele>
        <time>2011-11-29T18:45:12Z</time>
      </trkpt>
      <trkpt lat="49.02085" lon="1.09273">
        <ele>111.65</ele>
        <time>2011-11-29T18:45:25Z</time>
      </trkpt>
      <trkpt lat="49.02069" lon="1.09282">
        <ele>113.09</ele>
        <time>2011-11-29T18:45:35Z</time>
      </trkpt>
      <trkpt lat="49.02053" lon="1.0929">
        <ele>113.57</ele>
        <time>2011-11-29T18:45:44Z</time>
      </trkpt>
      <trkpt lat="49.02042" lon="1.09308">
        <ele>114.53</ele>
        <time>2011-11-29T18:45:53Z</time>
      </trkpt>
      <trkpt lat="49.02031" lon="1.0931">
        <ele>114.53</ele>
        <time>2011-11-29T18:45:59Z</time>
      </trkpt>
      <trkpt lat="49.02006" lon="1.09285">
        <ele>115.01</ele>
        <time>2011-11-29T18:46:12Z</time>
      </trkpt>
      <trkpt lat="49.01988" lon="1.09248">
        <ele>115.01</ele>
        <time>2011-11-29T18:46:25Z</time>
      </trkpt>
      <trkpt lat="49.01983" lon="1.09201">
        <ele>115.5</ele>
        <time>2011-11-29T18:46:38Z</time>
      </trkpt>
      <trkpt lat="49.01972" lon="1.09158">
        <ele>116.46</ele>
        <time>2011-11-29T18:46:53Z</time>
      </trkpt>
      <trkpt lat="49.01956" lon="1.09133">
        <ele>117.42</ele>
        <time>2011-11-29T18:47:06Z</time>
      </trkpt>
      <trkpt lat="49.01925" lon="1.09142">
        <ele>118.38</ele>
        <time>2011-11-29T18:47:21Z</time>
      </trkpt>
      <trkpt lat="49.01901" lon="1.09135">
        <ele>117.9</ele>
        <time>2011-11-29T18:47:34Z</time>
      </trkpt>
      <trkpt lat="49.01871" lon="1.09116">
        <ele>118.86</ele>
        <time>2011-11-29T18:47:50Z</time>
      </trkpt>
      <trkpt lat="49.01843" lon="1.09097">
        <ele>119.82</ele>
        <time>2011-11-29T18:48:04Z</time>
      </trkpt>
      <trkpt lat="49.01811" lon="1.09069">
        <ele>119.82</ele>
        <time>2011-11-29T18:48:20Z</time>
      </trkpt>
      <trkpt lat="49.01782" lon="1.09045">
        <ele>119.82</ele>
        <time>2011-11-29T18:48:35Z</time>
      </trkpt>
      <trkpt lat="49.01751" lon="1.09022">
        <ele>120.3</ele>
        <time>2011-11-29T18:48:50Z</time>
      </trkpt>
      <trkpt lat="49.01729" lon="1.09">
        <ele>119.82</ele>
        <time>2011-11-29T18:49:03Z</time>
      </trkpt>
      <trkpt lat="49.01715" lon="1.0898">
        <ele>119.82</ele>
        <time>2011-11-29T18:49:12Z</time>
      </trkpt>
      <trkpt lat="49.01694" lon="1.08944">
        <ele>119.34</ele>
        <time>2011-11-29T18:49:25Z</time>
      </trkpt>
      <trkpt lat="49.01688" lon="1.08938">
        <ele>119.34</ele>
        <time>2011-11-29T18:49:28Z</time>
      </trkpt>
      <trkpt lat="49.01665" lon="1.0893">
        <ele>119.34</ele>
        <time>2011-11-29T18:49:40Z</time>
      </trkpt>
      <trkpt lat="49.01628" lon="1.08914">
        <ele>118.86</ele>
        <time>2011-11-29T18:49:54Z</time>
      </trkpt>
      <trkpt lat="49.01611" lon="1.08934">
        <ele>119.34</ele>
        <time>2011-11-29T18:50:04Z</time>
      </trkpt>
      <trkpt lat="49.01614" lon="1.08988">
        <ele>119.34</ele>
        <time>2011-11-29T18:50:18Z</time>
      </trkpt>
      <trkpt lat="49.01618" lon="1.0904">
        <ele>119.82</ele>
        <time>2011-11-29T18:50:32Z</time>
      </trkpt>
      <trkpt lat="49.0162" lon="1.091">
        <ele>119.82</ele>
        <time>2011-11-29T18:50:48Z</time>
      </trkpt>
      <trkpt lat="49.01622" lon="1.09152">
        <ele>120.3</ele>
        <time>2011-11-29T18:51:02Z</time>
      </trkpt>
      <trkpt lat="49.01626" lon="1.09208">
        <ele>120.78</ele>
        <time>2011-11-29T18:51:17Z</time>
      </trkpt>
      <trkpt lat="49.01627" lon="1.09256">
        <ele>121.74</ele>
        <time>2011-11-29T18:51:30Z</time>
      </trkpt>
      <trkpt lat="49.01628" lon="1.09291">
        <ele>121.74</ele>
        <time>2011-11-29T18:51:40Z</time>
      </trkpt>
      <trkpt lat="49.01617" lon="1.09303">
        <ele>121.26</ele>
        <time>2011-11-29T18:51:46Z</time>
      </trkpt>
      <trkpt lat="49.0157" lon="1.09302">
        <ele>120.78</ele>
        <time>2011-11-29T18:52:04Z</time>
      </trkpt>
      <trkpt lat="49.01535" lon="1.09307">
        <ele>119.82</ele>
        <time>2011-11-29T18:52:18Z</time>
      </trkpt>
      <trkpt lat="49.01509" lon="1.09287">
        <ele>118.86</ele>
        <time>2011-11-29T18:52:30Z</time>
      </trkpt>
      <trkpt lat="49.01481" lon="1.0925">
        <ele>117.9</ele>
        <time>2011-11-29T18:52:45Z</time>
      </trkpt>
      <trkpt lat="49.01458" lon="1.09222">
        <ele>117.9</ele>
        <time>2011-11-29T18:52:58Z</time>
      </trkpt>
      <trkpt lat="49.01426" lon="1.09238">
        <ele>116.46</ele>
        <time>2011-11-29T18:53:12Z</time>
      </trkpt>
      <trkpt lat="49.01403" lon="1.09214">
        <ele>115.01</ele>
        <time>2011-11-29T18:53:23Z</time>
      </trkpt>
      <trkpt lat="49.01386" lon="1.09161">
        <ele>114.05</ele>
        <time>2011-11-29T18:53:37Z</time>
      </trkpt>
      <trkpt lat="49.01354" lon="1.09147">
        <ele>112.61</ele>
        <time>2011-11-29T18:53:49Z</time>
      </trkpt>
      <trkpt lat="49.01318" lon="1.09137">
        <ele>113.57</ele>
        <time>2011-11-29T18:54:04Z</time>
      </trkpt>
      <trkpt lat="49.01286" lon="1.09129">
        <ele>113.57</ele>
        <time>2011-11-29T18:54:20Z</time>
      </trkpt>
      <trkpt lat="49.01252" lon="1.09126">
        <ele>115.01</ele>
        <time>2011-11-29T18:54:37Z</time>
      </trkpt>
      <trkpt lat="49.01247" lon="1.09126">
        <ele>115.5</ele>
        <time>2011-11-29T18:54:40Z</time>
      </trkpt>
      <trkpt lat="49.01238" lon="1.09123">
        <ele>115.5</ele>
        <time>2011-11-29T18:54:45Z</time>
      </trkpt>
      <trkpt lat="49.01203" lon="1.09132">
        <ele>117.9</ele>
        <time>2011-11-29T18:55:01Z</time>
      </trkpt>
      <trkpt lat="49.0118" lon="1.09158">
        <ele>119.82</ele>
        <time>2011-11-29T18:55:16Z</time>
      </trkpt>
      <trkpt lat="49.01161" lon="1.09163">
        <ele>121.26</ele>
        <time>2011-11-29T18:55:26Z</time>
      </trkpt>
      <trkpt lat="49.0113" lon="1.09172">
        <ele>123.19</ele>
        <time>2011-11-29T18:55:43Z</time>
      </trkpt>
      <trkpt lat="49.01101" lon="1.09151">
        <ele>124.63</ele>
        <time>2011-11-29T18:55:59Z</time>
      </trkpt>
      <trkpt lat="49.01093" lon="1.09104">
        <ele>125.11</ele>
        <time>2011-11-29T18:56:11Z</time>
      </trkpt>
      <trkpt lat="49.011" lon="1.09054">
        <ele>123.67</ele>
        <time>2011-11-29T18:56:23Z</time>
      </trkpt>
      <trkpt lat="49.01098" lon="1.09014">
        <ele>122.71</ele>
        <time>2011-11-29T18:56:34Z</time>
      </trkpt>
      <trkpt lat="49.0108" lon="1.08972">
        <ele>122.71</ele>
        <time>2011-11-29T18:56:49Z</time>
      </trkpt>
      <trkpt lat="49.01057" lon="1.08935">
        <ele>122.22</ele>
        <time>2011-11-29T18:57:04Z</time>
      </trkpt>
      <trkpt lat="49.0104" lon="1.08908">
        <ele>123.19</ele>
        <time>2011-11-29T18:57:14Z</time>
      </trkpt>
      <trkpt lat="49.01016" lon="1.08864">
        <ele>122.71</ele>
        <time>2011-11-29T18:57:29Z</time>
      </trkpt>
      <trkpt lat="49.00991" lon="1.08828">
        <ele>122.71</ele>
        <time>2011-11-29T18:57:42Z</time>
      </trkpt>
      <trkpt lat="49.00963" lon="1.08809">
        <ele>122.71</ele>
        <time>2011-11-29T18:57:55Z</time>
      </trkpt>
      <trkpt lat="49.00937" lon="1.08802">
        <ele>123.67</ele>
        <time>2011-11-29T18:58:08Z</time>
      </trkpt>
      <trkpt lat="49.00907" lon="1.08808">
        <ele>123.67</ele>
        <time>2011-11-29T18:58:20Z</time>
      </trkpt>
      <trkpt lat="49.00899" lon="1.0881">
        <ele>123.67</ele>
        <time>2011-11-29T18:58:24Z</time>
      </trkpt>
      <trkpt lat="49.0089" lon="1.0881">
        <ele>123.67</ele>
        <time>2011-11-29T18:58:28Z</time>
      </trkpt>
      <trkpt lat="49.00854" lon="1.08812">
        <ele>123.19</ele>
        <time>2011-11-29T18:58:42Z</time>
      </trkpt>
      <trkpt lat="49.00828" lon="1.08795">
        <ele>123.67</ele>
        <time>2011-11-29T18:58:54Z</time>
      </trkpt>
      <trkpt lat="49.00819" lon="1.08757">
        <ele>123.19</ele>
        <time>2011-11-29T18:59:05Z</time>
      </trkpt>
      <trkpt lat="49.00818" lon="1.08755">
        <ele>123.19</ele>
        <time>2011-11-29T18:59:06Z</time>
      </trkpt>
      <trkpt lat="49.00814" lon="1.08733">
        <ele>123.19</ele>
        <time>2011-11-29T18:59:16Z</time>
      </trkpt>
      <trkpt lat="49.00814" lon="1.08734">
        <ele>123.67</ele>
        <time>2011-11-29T18:59:19Z</time>
      </trkpt>
      <trkpt lat="49.00815" lon="1.08741">
        <ele>123.67</ele>
        <time>2011-11-29T18:59:24Z</time>
      </trkpt>
      <trkpt lat="49.00784" lon="1.08757">
        <ele>123.19</ele>
        <time>2011-11-29T18:59:36Z</time>
      </trkpt>
      <trkpt lat="49.00752" lon="1.0877">
        <ele>122.71</ele>
        <time>2011-11-29T18:59:49Z</time>
      </trkpt>
      <trkpt lat="49.00721" lon="1.08792">
        <ele>122.71</ele>
        <time>2011-11-29T19:00:02Z</time>
      </trkpt>
      <trkpt lat="49.00694" lon="1.08807">
        <ele>122.22</ele>
        <time>2011-11-29T19:00:14Z</time>
      </trkpt>
      <trkpt lat="49.00666" lon="1.08824">
        <ele>122.22</ele>
        <time>2011-11-29T19:00:27Z</time>
      </trkpt>
      <trkpt lat="49.0064" lon="1.0884">
        <ele>122.22</ele>
        <time>2011-11-29T19:00:40Z</time>
      </trkpt>
      <trkpt lat="49.00612" lon="1.08857">
        <ele>121.74</ele>
        <time>2011-11-29T19:00:52Z</time>
      </trkpt>
      <trkpt lat="49.0058" lon="1.08874">
        <ele>122.22</ele>
        <time>2011-11-29T19:01:05Z</time>
      </trkpt>
      <trkpt lat="49.00545" lon="1.08898">
        <ele>123.19</ele>
        <time>2011-11-29T19:01:19Z</time>
      </trkpt>
      <trkpt lat="49.00509" lon="1.08921">
        <ele>123.19</ele>
        <time>2011-11-29T19:01:34Z</time>
      </trkpt>
      <trkpt lat="49.00475" lon="1.08939">
        <ele>123.67</ele>
        <time>2011-11-29T19:01:48Z</time>
      </trkpt>
      <trkpt lat="49.00445" lon="1.08957">
        <ele>123.19</ele>
        <time>2011-11-29T19:02:00Z</time>
      </trkpt>
      <trkpt lat="49.00408" lon="1.08977">
        <ele>122.71</ele>
        <time>2011-11-29T19:02:15Z</time>
      </trkpt>
      <trkpt lat="49.00369" lon="1.09">
        <ele>120.78</ele>
        <time>2011-11-29T19:02:31Z</time>
      </trkpt>
      <trkpt lat="49.00329" lon="1.09023">
        <ele>119.34</ele>
        <time>2011-11-29T19:02:47Z</time>
      </trkpt>
      <trkpt lat="49.00287" lon="1.09043">
        <ele>117.42</ele>
        <time>2011-11-29T19:03:02Z</time>
      </trkpt>
      <trkpt lat="49.00257" lon="1.0908">
        <ele>115.01</ele>
        <time>2011-11-29T19:03:15Z</time>
      </trkpt>
      <trkpt lat="49.00242" lon="1.09075">
        <ele>115.01</ele>
        <time>2011-11-29T19:03:21Z</time>
      </trkpt>
      <trkpt lat="49.00212" lon="1.0901">
        <ele>115.01</ele>
        <time>2011-11-29T19:03:38Z</time>
      </trkpt>
      <trkpt lat="49.00206" lon="1.08963">
        <ele>115.98</ele>
        <time>2011-11-29T19:03:48Z</time>
      </trkpt>
      <trkpt lat="49.00233" lon="1.08946">
        <ele>115.01</ele>
        <time>2011-11-29T19:03:59Z</time>
      </trkpt>
      <trkpt lat="49.00239" lon="1.08942">
        <ele>115.01</ele>
        <time>2011-11-29T19:04:03Z</time>
      </trkpt>
    </trkseg>
  </trk>
</gpx>